sensor_id;sensor_type;location;lat;lon;timestamp;pressure;altitude;pressure_sealevel;temperature;humidity
62978;BME280;49073;42.352;23.808;2023-02-02T00:01:24;94705.31;;;3.23;54.88
62978;BME280;49073;42.352;23.808;2023-02-02T00:04:28;94706.13;;;3.32;54.27
62978;BME280;49073;42.352;23.808;2023-02-02T00:07:29;94710.78;;;3.35;54.63
62978;BME280;49073;42.352;23.808;2023-02-02T00:10:29;94700.25;;;3.35;54.48
62978;BME280;49073;42.352;23.808;2023-02-02T00:13:31;94702.41;;;3.33;54.71
62978;BME280;49073;42.352;23.808;2023-02-02T00:16:34;94696.53;;;3.37;54.34
62978;BME280;49073;42.352;23.808;2023-02-02T00:19:35;94701.03;;;3.36;54.93
62978;BME280;49073;42.352;23.808;2023-02-02T00:22:36;94712.94;;;3.33;54.88
62978;BME280;49073;42.352;23.808;2023-02-02T00:25:37;94701.78;;;3.37;55.14
62978;BME280;49073;42.352;23.808;2023-02-02T00:28:37;94697.63;;;3.35;55.13
62978;BME280;49073;42.352;23.808;2023-02-02T00:31:38;94698.56;;;3.40;55.33
62978;BME280;49073;42.352;23.808;2023-02-02T00:34:38;94699.78;;;3.33;55.56
62978;BME280;49073;42.352;23.808;2023-02-02T00:37:39;94702.88;;;3.27;55.60
62978;BME280;49073;42.352;23.808;2023-02-02T00:40:39;94691.41;;;3.31;55.43
62978;BME280;49073;42.352;23.808;2023-02-02T00:43:40;94688.78;;;3.31;55.30
62978;BME280;49073;42.352;23.808;2023-02-02T00:46:41;94697.75;;;3.30;55.78
62978;BME280;49073;42.352;23.808;2023-02-02T00:49:42;94690.94;;;3.29;55.38
62978;BME280;49073;42.352;23.808;2023-02-02T00:52:42;94696.19;;;3.29;54.60
62978;BME280;49073;42.352;23.808;2023-02-02T00:55:43;94695.88;;;3.22;55.10
62978;BME280;49073;42.352;23.808;2023-02-02T00:58:43;94694.00;;;3.23;55.02
62978;BME280;49073;42.352;23.808;2023-02-02T01:01:44;94697.44;;;3.23;54.86
62978;BME280;49073;42.352;23.808;2023-02-02T01:04:44;94699.78;;;3.25;54.75
62978;BME280;49073;42.352;23.808;2023-02-02T01:07:46;94703.13;;;3.16;54.48
62978;BME280;49073;42.352;23.808;2023-02-02T01:10:46;94695.84;;;3.13;54.52
62978;BME280;49073;42.352;23.808;2023-02-02T01:13:47;94707.16;;;3.14;54.58
62978;BME280;49073;42.352;23.808;2023-02-02T01:16:48;94714.13;;;3.10;55.24
62978;BME280;49073;42.352;23.808;2023-02-02T01:19:48;94702.31;;;3.07;55.61
62978;BME280;49073;42.352;23.808;2023-02-02T01:22:49;94722.00;;;3.10;55.44
62978;BME280;49073;42.352;23.808;2023-02-02T01:25:54;94718.59;;;3.09;56.11
62978;BME280;49073;42.352;23.808;2023-02-02T01:28:55;94722.31;;;3.08;56.52
62978;BME280;49073;42.352;23.808;2023-02-02T01:31:55;94721.81;;;3.06;57.10
62978;BME280;49073;42.352;23.808;2023-02-02T01:34:56;94724.31;;;3.02;57.79
62978;BME280;49073;42.352;23.808;2023-02-02T01:37:56;94728.97;;;3.05;57.12
62978;BME280;49073;42.352;23.808;2023-02-02T01:40:57;94722.56;;;2.98;57.54
62978;BME280;49073;42.352;23.808;2023-02-02T01:44:03;94722.75;;;3.01;57.79
62978;BME280;49073;42.352;23.808;2023-02-02T01:47:04;94726.47;;;3.00;58.37
62978;BME280;49073;42.352;23.808;2023-02-02T01:50:05;94725.53;;;2.96;58.35
62978;BME280;49073;42.352;23.808;2023-02-02T01:53:08;94730.94;;;3.00;59.02
62978;BME280;49073;42.352;23.808;2023-02-02T01:56:11;94722.22;;;2.90;58.90
62978;BME280;49073;42.352;23.808;2023-02-02T01:59:15;94712.94;;;2.93;59.43
62978;BME280;49073;42.352;23.808;2023-02-02T02:02:17;94716.06;;;2.95;58.98
62978;BME280;49073;42.352;23.808;2023-02-02T02:05:23;94712.59;;;2.86;59.55
62978;BME280;49073;42.352;23.808;2023-02-02T02:08:38;94719.88;;;2.80;60.18
62978;BME280;49073;42.352;23.808;2023-02-02T02:11:39;94711.91;;;2.71;60.37
62978;BME280;49073;42.352;23.808;2023-02-02T02:14:45;94711.63;;;2.73;60.39
62978;BME280;49073;42.352;23.808;2023-02-02T02:18:11;94695.91;;;2.59;61.21
62978;BME280;49073;42.352;23.808;2023-02-02T02:21:31;94693.44;;;2.62;61.26
62978;BME280;49073;42.352;23.808;2023-02-02T02:32:23;94698.19;;;2.29;62.09
62978;BME280;49073;42.352;23.808;2023-02-02T02:38:41;94691.81;;;2.21;63.20
62978;BME280;49073;42.352;23.808;2023-02-02T02:41:48;94696.22;;;2.12;63.58
62978;BME280;49073;42.352;23.808;2023-02-02T02:44:50;94694.00;;;2.05;64.06
62978;BME280;49073;42.352;23.808;2023-02-02T02:47:53;94692.66;;;2.08;63.54
62978;BME280;49073;42.352;23.808;2023-02-02T02:51:07;94695.91;;;2.13;63.37
62978;BME280;49073;42.352;23.808;2023-02-02T02:54:09;94704.72;;;2.09;63.65
62978;BME280;49073;42.352;23.808;2023-02-02T03:00:50;94690.03;;;2.08;63.23
62978;BME280;49073;42.352;23.808;2023-02-02T03:07:08;94697.41;;;2.06;63.35
62978;BME280;49073;42.352;23.808;2023-02-02T03:10:14;94697.03;;;1.98;63.24
62978;BME280;49073;42.352;23.808;2023-02-02T03:13:16;94703.25;;;2.02;62.86
62978;BME280;49073;42.352;23.808;2023-02-02T03:16:17;94706.34;;;2.04;62.91
62978;BME280;49073;42.352;23.808;2023-02-02T03:19:18;94710.38;;;2.02;63.31
62978;BME280;49073;42.352;23.808;2023-02-02T03:22:18;94713.59;;;1.99;63.53
62978;BME280;49073;42.352;23.808;2023-02-02T03:25:19;94711.72;;;1.99;63.34
62978;BME280;49073;42.352;23.808;2023-02-02T03:28:22;94709.91;;;2.00;63.21
62978;BME280;49073;42.352;23.808;2023-02-02T03:31:25;94699.84;;;2.02;62.96
62978;BME280;49073;42.352;23.808;2023-02-02T03:34:27;94704.31;;;2.01;62.93
62978;BME280;49073;42.352;23.808;2023-02-02T03:37:28;94699.41;;;1.86;65.18
62978;BME280;49073;42.352;23.808;2023-02-02T03:40:28;94698.19;;;1.83;64.47
62978;BME280;49073;42.352;23.808;2023-02-02T03:43:29;94697.50;;;1.78;64.69
62978;BME280;49073;42.352;23.808;2023-02-02T03:46:30;94707.41;;;1.81;64.33
62978;BME280;49073;42.352;23.808;2023-02-02T03:49:30;94700.59;;;1.80;64.48
62978;BME280;49073;42.352;23.808;2023-02-02T03:52:31;94696.13;;;1.80;64.78
62978;BME280;49073;42.352;23.808;2023-02-02T03:55:33;94691.41;;;1.91;63.96
62978;BME280;49073;42.352;23.808;2023-02-02T03:58:34;94693.44;;;1.94;63.50
62978;BME280;49073;42.352;23.808;2023-02-02T04:01:34;94694.88;;;2.00;63.43
62978;BME280;49073;42.352;23.808;2023-02-02T04:04:35;94702.88;;;1.95;63.69
62978;BME280;49073;42.352;23.808;2023-02-02T04:07:35;94705.72;;;1.99;63.16
62978;BME280;49073;42.352;23.808;2023-02-02T04:10:36;94707.34;;;2.09;62.54
62978;BME280;49073;42.352;23.808;2023-02-02T04:13:39;94700.81;;;2.06;63.03
62978;BME280;49073;42.352;23.808;2023-02-02T04:16:40;94706.34;;;2.04;62.60
62978;BME280;49073;42.352;23.808;2023-02-02T04:19:40;94704.88;;;2.12;62.66
62978;BME280;49073;42.352;23.808;2023-02-02T04:22:41;94712.78;;;2.12;62.57
62978;BME280;49073;42.352;23.808;2023-02-02T04:25:48;94719.91;;;2.12;62.80
62978;BME280;49073;42.352;23.808;2023-02-02T04:28:49;94711.69;;;2.13;62.24
62978;BME280;49073;42.352;23.808;2023-02-02T04:31:49;94710.81;;;2.18;62.08
62978;BME280;49073;42.352;23.808;2023-02-02T04:34:50;94717.91;;;2.17;61.64
62978;BME280;49073;42.352;23.808;2023-02-02T04:37:51;94719.78;;;2.17;61.87
62978;BME280;49073;42.352;23.808;2023-02-02T04:40:51;94722.88;;;2.19;62.23
62978;BME280;49073;42.352;23.808;2023-02-02T04:43:52;94719.19;;;2.20;62.00
62978;BME280;49073;42.352;23.808;2023-02-02T04:46:52;94716.53;;;2.20;61.93
62978;BME280;49073;42.352;23.808;2023-02-02T04:49:53;94712.16;;;2.15;61.79
62978;BME280;49073;42.352;23.808;2023-02-02T04:52:53;94722.56;;;2.21;61.81
62978;BME280;49073;42.352;23.808;2023-02-02T04:55:54;94724.25;;;2.16;61.69
62978;BME280;49073;42.352;23.808;2023-02-02T04:58:54;94725.31;;;2.15;62.13
62978;BME280;49073;42.352;23.808;2023-02-02T05:01:59;94726.97;;;2.11;61.89
62978;BME280;49073;42.352;23.808;2023-02-02T05:04:59;94737.13;;;2.04;62.13
62978;BME280;49073;42.352;23.808;2023-02-02T05:08:00;94730.44;;;1.98;62.42
62978;BME280;49073;42.352;23.808;2023-02-02T05:11:14;94730.31;;;2.03;62.50
62978;BME280;49073;42.352;23.808;2023-02-02T05:14:14;94734.03;;;2.02;62.46
62978;BME280;49073;42.352;23.808;2023-02-02T05:17:17;94737.41;;;2.02;62.72
62978;BME280;49073;42.352;23.808;2023-02-02T05:20:18;94735.38;;;1.99;62.68
62978;BME280;49073;42.352;23.808;2023-02-02T05:23:18;94739.13;;;1.84;63.33
62978;BME280;49073;42.352;23.808;2023-02-02T05:26:24;94740.97;;;1.84;63.43
62978;BME280;49073;42.352;23.808;2023-02-02T05:29:26;94736.03;;;1.82;63.56
62978;BME280;49073;42.352;23.808;2023-02-02T05:32:26;94740.38;;;1.87;63.50
62978;BME280;49073;42.352;23.808;2023-02-02T05:35:30;94736.03;;;1.82;63.81
62978;BME280;49073;42.352;23.808;2023-02-02T05:38:30;94743.50;;;1.75;63.92
62978;BME280;49073;42.352;23.808;2023-02-02T05:41:31;94750.03;;;1.78;63.66
62978;BME280;49073;42.352;23.808;2023-02-02T05:44:31;94743.44;;;1.80;63.96
62978;BME280;49073;42.352;23.808;2023-02-02T05:47:32;94740.69;;;1.85;63.50
62978;BME280;49073;42.352;23.808;2023-02-02T05:50:35;94747.50;;;1.86;63.40
62978;BME280;49073;42.352;23.808;2023-02-02T05:53:35;94743.31;;;1.85;63.44
62978;BME280;49073;42.352;23.808;2023-02-02T05:56:36;94745.84;;;1.91;63.19
62978;BME280;49073;42.352;23.808;2023-02-02T05:59:37;94737.38;;;1.94;63.78
62978;BME280;49073;42.352;23.808;2023-02-02T06:02:37;94740.16;;;1.97;63.52
62978;BME280;49073;42.352;23.808;2023-02-02T06:05:38;94746.00;;;1.94;63.21
62978;BME280;49073;42.352;23.808;2023-02-02T06:08:39;94735.28;;;2.04;63.14
62978;BME280;49073;42.352;23.808;2023-02-02T06:11:39;94738.56;;;2.10;62.96
62978;BME280;49073;42.352;23.808;2023-02-02T06:14:40;94745.00;;;2.18;62.72
62978;BME280;49073;42.352;23.808;2023-02-02T06:17:40;94740.69;;;2.22;62.34
62978;BME280;49073;42.352;23.808;2023-02-02T06:20:40;94747.66;;;2.27;62.67
62978;BME280;49073;42.352;23.808;2023-02-02T06:23:41;94746.19;;;2.35;62.31
62978;BME280;49073;42.352;23.808;2023-02-02T06:26:45;94740.81;;;2.40;61.85
62978;BME280;49073;42.352;23.808;2023-02-02T06:29:45;94744.88;;;2.46;61.84
62978;BME280;49073;42.352;23.808;2023-02-02T06:32:46;94741.41;;;2.59;61.40
62978;BME280;49073;42.352;23.808;2023-02-02T06:35:46;94737.22;;;2.58;60.97
62978;BME280;49073;42.352;23.808;2023-02-02T06:38:50;94738.88;;;2.77;60.43
62978;BME280;49073;42.352;23.808;2023-02-02T06:41:51;94756.72;;;2.89;60.60
62978;BME280;49073;42.352;23.808;2023-02-02T06:44:52;94761.75;;;2.99;59.77
62978;BME280;49073;42.352;23.808;2023-02-02T06:47:53;94753.59;;;3.10;59.62
62978;BME280;49073;42.352;23.808;2023-02-02T06:50:57;94761.09;;;3.25;59.18
62978;BME280;49073;42.352;23.808;2023-02-02T06:53:58;94759.44;;;3.38;58.40
62978;BME280;49073;42.352;23.808;2023-02-02T06:56:59;94756.84;;;3.47;57.95
62978;BME280;49073;42.352;23.808;2023-02-02T07:00:00;94759.69;;;3.59;57.46
62978;BME280;49073;42.352;23.808;2023-02-02T07:03:01;94758.59;;;3.69;56.90
62978;BME280;49073;42.352;23.808;2023-02-02T07:06:19;94754.88;;;3.61;56.78
62978;BME280;49073;42.352;23.808;2023-02-02T07:09:19;94763.41;;;3.58;57.15
62978;BME280;49073;42.352;23.808;2023-02-02T07:12:20;94759.50;;;3.56;56.71
62978;BME280;49073;42.352;23.808;2023-02-02T07:15:21;94773.31;;;3.61;57.03
62978;BME280;49073;42.352;23.808;2023-02-02T07:18:21;94774.13;;;3.71;56.92
62978;BME280;49073;42.352;23.808;2023-02-02T07:21:23;94780.03;;;3.85;56.16
62978;BME280;49073;42.352;23.808;2023-02-02T07:24:25;94768.75;;;3.85;56.15
62978;BME280;49073;42.352;23.808;2023-02-02T07:27:26;94777.72;;;3.84;56.85
62978;BME280;49073;42.352;23.808;2023-02-02T07:30:27;94782.84;;;3.89;55.87
62978;BME280;49073;42.352;23.808;2023-02-02T07:33:28;94786.44;;;3.93;56.14
62978;BME280;49073;42.352;23.808;2023-02-02T07:36:29;94789.34;;;3.91;55.50
62978;BME280;49073;42.352;23.808;2023-02-02T07:39:29;94784.56;;;3.85;55.97
62978;BME280;49073;42.352;23.808;2023-02-02T07:42:30;94789.69;;;3.90;55.82
62978;BME280;49073;42.352;23.808;2023-02-02T07:45:30;94789.81;;;3.93;56.25
62978;BME280;49073;42.352;23.808;2023-02-02T07:48:31;94788.13;;;3.98;56.12
62978;BME280;49073;42.352;23.808;2023-02-02T07:51:32;94781.94;;;4.11;54.77
62978;BME280;49073;42.352;23.808;2023-02-02T07:54:32;94780.88;;;4.21;55.22
62978;BME280;49073;42.352;23.808;2023-02-02T07:57:34;94783.03;;;4.19;54.49
62978;BME280;49073;42.352;23.808;2023-02-02T08:00:34;94783.22;;;4.22;55.13
62978;BME280;49073;42.352;23.808;2023-02-02T08:03:35;94785.38;;;4.20;54.55
62978;BME280;49073;42.352;23.808;2023-02-02T08:06:38;94784.28;;;4.13;54.31
62978;BME280;49073;42.352;23.808;2023-02-02T08:09:39;94778.97;;;4.04;54.45
62978;BME280;49073;42.352;23.808;2023-02-02T08:12:44;94773.25;;;4.02;55.17
62978;BME280;49073;42.352;23.808;2023-02-02T08:15:45;94776.19;;;4.09;55.47
62978;BME280;49073;42.352;23.808;2023-02-02T08:18:46;94773.75;;;4.21;54.69
62978;BME280;49073;42.352;23.808;2023-02-02T08:21:46;94773.88;;;4.51;54.11
62978;BME280;49073;42.352;23.808;2023-02-02T08:24:47;94770.59;;;4.81;53.04
62978;BME280;49073;42.352;23.808;2023-02-02T08:27:52;94774.75;;;5.08;52.81
62978;BME280;49073;42.352;23.808;2023-02-02T08:30:53;94777.94;;;5.23;51.91
62978;BME280;49073;42.352;23.808;2023-02-02T08:33:54;94777.03;;;5.28;51.40
62978;BME280;49073;42.352;23.808;2023-02-02T08:36:57;94765.78;;;5.39;51.15
62978;BME280;49073;42.352;23.808;2023-02-02T08:39:57;94762.34;;;5.48;50.57
62978;BME280;49073;42.352;23.808;2023-02-02T08:42:58;94758.66;;;5.70;50.64
62978;BME280;49073;42.352;23.808;2023-02-02T08:45:59;94751.97;;;5.94;49.13
62978;BME280;49073;42.352;23.808;2023-02-02T08:48:59;94743.91;;;6.20;47.45
62978;BME280;49073;42.352;23.808;2023-02-02T08:52:00;94738.34;;;6.13;46.72
62978;BME280;49073;42.352;23.808;2023-02-02T08:55:00;94755.69;;;6.02;47.25
62978;BME280;49073;42.352;23.808;2023-02-02T08:58:01;94741.38;;;6.03;47.68
62978;BME280;49073;42.352;23.808;2023-02-02T09:01:13;94730.47;;;6.04;47.07
62978;BME280;49073;42.352;23.808;2023-02-02T09:04:14;94737.91;;;6.32;47.49
62978;BME280;49073;42.352;23.808;2023-02-02T09:07:15;94730.84;;;6.58;47.44
62978;BME280;49073;42.352;23.808;2023-02-02T09:10:16;94740.84;;;6.31;47.34
62978;BME280;49073;42.352;23.808;2023-02-02T09:13:16;94731.13;;;6.22;48.27
62978;BME280;49073;42.352;23.808;2023-02-02T09:16:17;94727.28;;;6.53;46.88
62978;BME280;49073;42.352;23.808;2023-02-02T09:19:18;94724.56;;;6.75;46.84
62978;BME280;49073;42.352;23.808;2023-02-02T09:22:18;94722.56;;;7.05;46.80
62978;BME280;49073;42.352;23.808;2023-02-02T09:25:20;94721.34;;;7.03;45.94
62978;BME280;49073;42.352;23.808;2023-02-02T09:28:21;94725.56;;;7.16;45.17
62978;BME280;49073;42.352;23.808;2023-02-02T09:31:22;94719.00;;;7.01;45.60
62978;BME280;49073;42.352;23.808;2023-02-02T09:34:23;94710.22;;;7.22;45.21
62978;BME280;49073;42.352;23.808;2023-02-02T09:37:28;94699.94;;;7.20;45.38
62978;BME280;49073;42.352;23.808;2023-02-02T09:40:31;94703.03;;;7.35;45.06
62978;BME280;49073;42.352;23.808;2023-02-02T09:44:02;94687.88;;;7.60;45.20
62978;BME280;49073;42.352;23.808;2023-02-02T09:50:57;94682.94;;;8.12;46.13
62978;BME280;49073;42.352;23.808;2023-02-02T09:54:10;94673.84;;;8.25;43.32
62978;BME280;49073;42.352;23.808;2023-02-02T09:57:35;94660.81;;;8.36;43.39
62978;BME280;49073;42.352;23.808;2023-02-02T10:00:41;94656.63;;;8.35;43.82
62978;BME280;49073;42.352;23.808;2023-02-02T10:04:20;94641.88;;;8.22;42.03
62978;BME280;49073;42.352;23.808;2023-02-02T10:07:28;94642.44;;;8.15;42.06
62978;BME280;49073;42.352;23.808;2023-02-02T10:10:38;94636.44;;;8.18;43.08
62978;BME280;49073;42.352;23.808;2023-02-02T10:13:43;94634.00;;;7.97;44.03
62978;BME280;49073;42.352;23.808;2023-02-02T10:16:46;94631.31;;;7.68;44.84
62978;BME280;49073;42.352;23.808;2023-02-02T10:19:52;94634.06;;;7.72;43.50
62978;BME280;49073;42.352;23.808;2023-02-02T10:22:57;94635.53;;;7.69;43.48
62978;BME280;49073;42.352;23.808;2023-02-02T10:32:33;94614.03;;;8.15;43.06
62978;BME280;49073;42.352;23.808;2023-02-02T10:35:48;94625.97;;;8.38;44.23
62978;BME280;49073;42.352;23.808;2023-02-02T10:39:53;94611.47;;;8.64;43.89
62978;BME280;49073;42.352;23.808;2023-02-02T10:49:18;94603.34;;;8.56;43.91
62978;BME280;49073;42.352;23.808;2023-02-02T10:52:25;94600.25;;;8.54;43.76
62978;BME280;49073;42.352;23.808;2023-02-02T10:58:43;94600.13;;;8.35;44.14
62978;BME280;49073;42.352;23.808;2023-02-02T11:01:46;94589.38;;;8.76;44.08
62978;BME280;49073;42.352;23.808;2023-02-02T11:04:47;94588.31;;;8.48;42.25
62978;BME280;49073;42.352;23.808;2023-02-02T11:08:12;94579.78;;;8.55;42.08
62978;BME280;49073;42.352;23.808;2023-02-02T11:14:29;94560.16;;;8.76;42.89
62978;BME280;49073;42.352;23.808;2023-02-02T11:17:34;94560.84;;;8.88;41.96
62978;BME280;49073;42.352;23.808;2023-02-02T11:20:35;94555.34;;;8.81;41.73
62978;BME280;49073;42.352;23.808;2023-02-02T11:23:38;94558.28;;;8.60;40.56
62978;BME280;49073;42.352;23.808;2023-02-02T11:26:45;94558.06;;;8.37;40.96
62978;BME280;49073;42.352;23.808;2023-02-02T11:29:50;94549.00;;;8.70;41.21
62978;BME280;49073;42.352;23.808;2023-02-02T11:32:51;94554.25;;;8.50;41.22
62978;BME280;49073;42.352;23.808;2023-02-02T11:35:58;94536.84;;;8.53;40.22
62978;BME280;49073;42.352;23.808;2023-02-02T11:39:18;94552.59;;;8.78;39.86
62978;BME280;49073;42.352;23.808;2023-02-02T11:42:21;94542.56;;;8.71;39.53
62978;BME280;49073;42.352;23.808;2023-02-02T11:45:35;94527.19;;;8.96;39.72
62978;BME280;49073;42.352;23.808;2023-02-02T11:48:38;94544.75;;;9.17;38.82
62978;BME280;49073;42.352;23.808;2023-02-02T11:51:38;94529.44;;;8.94;39.05
62978;BME280;49073;42.352;23.808;2023-02-02T11:54:45;94540.59;;;8.68;38.90
62978;BME280;49073;42.352;23.808;2023-02-02T11:58:12;94533.63;;;7.99;39.58
62978;BME280;49073;42.352;23.808;2023-02-02T12:01:42;94525.00;;;7.61;41.06
62978;BME280;49073;42.352;23.808;2023-02-02T12:04:45;94521.91;;;7.43;41.85
62978;BME280;49073;42.352;23.808;2023-02-02T12:07:46;94524.66;;;7.34;41.72
62978;BME280;49073;42.352;23.808;2023-02-02T12:10:58;94519.38;;;7.34;41.81
62978;BME280;49073;42.352;23.808;2023-02-02T12:14:42;94504.53;;;7.46;41.82
62978;BME280;49073;42.352;23.808;2023-02-02T12:17:41;94502.84;;;7.53;42.41
62978;BME280;49073;42.352;23.808;2023-02-02T12:27:25;94485.50;;;8.49;40.77
62978;BME280;49073;42.352;23.808;2023-02-02T12:43:22;94447.56;;;8.64;38.54
62978;BME280;49073;42.352;23.808;2023-02-02T12:46:41;94452.03;;;8.96;39.69
62978;BME280;49073;42.352;23.808;2023-02-02T13:06:24;94448.06;;;8.70;38.57
62978;BME280;49073;42.352;23.808;2023-02-02T13:09:48;94450.47;;;8.43;39.54
62978;BME280;49073;42.352;23.808;2023-02-02T13:12:59;94457.44;;;8.15;39.77
62978;BME280;49073;42.352;23.808;2023-02-02T13:16:10;94448.84;;;7.90;40.24
62978;BME280;49073;42.352;23.808;2023-02-02T13:19:25;94478.53;;;7.80;40.42
62978;BME280;49073;42.352;23.808;2023-02-02T13:22:32;94474.97;;;7.31;43.04
62978;BME280;49073;42.352;23.808;2023-02-02T13:25:39;94484.28;;;7.25;42.28
62978;BME280;49073;42.352;23.808;2023-02-02T13:29:02;94488.19;;;7.03;45.84
62978;BME280;49073;42.352;23.808;2023-02-02T13:32:35;94481.94;;;6.82;47.57
62978;BME280;49073;42.352;23.808;2023-02-02T13:35:45;94486.25;;;6.87;47.11
62978;BME280;49073;42.352;23.808;2023-02-02T13:38:51;94477.28;;;6.92;47.56
62978;BME280;49073;42.352;23.808;2023-02-02T13:41:53;94472.34;;;6.90;47.41
62978;BME280;49073;42.352;23.808;2023-02-02T13:45:00;94478.47;;;7.07;47.37
62978;BME280;49073;42.352;23.808;2023-02-02T13:48:22;94473.75;;;7.28;46.77
62978;BME280;49073;42.352;23.808;2023-02-02T13:54:51;94464.75;;;7.17;45.52
62978;BME280;49073;42.352;23.808;2023-02-02T14:01:30;94477.59;;;7.03;45.54
62978;BME280;49073;42.352;23.808;2023-02-02T14:04:31;94490.28;;;6.97;45.46
62978;BME280;49073;42.352;23.808;2023-02-02T14:07:36;94481.16;;;6.94;45.48
62978;BME280;49073;42.352;23.808;2023-02-02T14:10:58;94478.63;;;6.86;47.12
62978;BME280;49073;42.352;23.808;2023-02-02T14:14:21;94472.13;;;6.83;46.70
62978;BME280;49073;42.352;23.808;2023-02-02T14:17:49;94471.81;;;6.72;47.62
62978;BME280;49073;42.352;23.808;2023-02-02T14:20:50;94483.28;;;6.64;48.23
62978;BME280;49073;42.352;23.808;2023-02-02T14:23:53;94485.94;;;6.51;49.17
62978;BME280;49073;42.352;23.808;2023-02-02T14:27:01;94492.09;;;6.43;49.64
62978;BME280;49073;42.352;23.808;2023-02-02T14:30:17;94491.00;;;6.44;50.64
62978;BME280;49073;42.352;23.808;2023-02-02T14:36:20;94494.88;;;6.22;51.64
62978;BME280;49073;42.352;23.808;2023-02-02T14:39:25;94477.84;;;6.10;52.37
62978;BME280;49073;42.352;23.808;2023-02-02T14:49:10;94501.59;;;5.98;53.22
62978;BME280;49073;42.352;23.808;2023-02-02T14:52:20;94502.00;;;5.75;55.63
62978;BME280;49073;42.352;23.808;2023-02-02T14:55:21;94508.94;;;5.46;58.76
62978;BME280;49073;42.352;23.808;2023-02-02T15:01:34;94522.16;;;5.25;61.61
62978;BME280;49073;42.352;23.808;2023-02-02T15:04:36;94523.84;;;5.30;61.75
62978;BME280;49073;42.352;23.808;2023-02-02T15:07:50;94512.41;;;5.17;62.85
62978;BME280;49073;42.352;23.808;2023-02-02T15:11:03;94526.00;;;5.06;64.02
62978;BME280;49073;42.352;23.808;2023-02-02T15:20:48;94531.59;;;4.84;66.07
62978;BME280;49073;42.352;23.808;2023-02-02T15:23:50;94526.81;;;4.77;66.87
62978;BME280;49073;42.352;23.808;2023-02-02T15:26:51;94533.53;;;4.74;67.35
62978;BME280;49073;42.352;23.808;2023-02-02T15:30:01;94543.31;;;4.65;67.48
62978;BME280;49073;42.352;23.808;2023-02-02T15:33:36;94542.22;;;4.66;67.65
62978;BME280;49073;42.352;23.808;2023-02-02T15:36:38;94548.78;;;4.60;67.75
62978;BME280;49073;42.352;23.808;2023-02-02T15:39:42;94563.41;;;4.57;68.34
62978;BME280;49073;42.352;23.808;2023-02-02T15:42:48;94580.91;;;4.62;67.91
62978;BME280;49073;42.352;23.808;2023-02-02T15:45:54;94611.66;;;4.58;67.99
62978;BME280;49073;42.352;23.808;2023-02-02T15:52:31;94659.69;;;3.81;77.23
62978;BME280;49073;42.352;23.808;2023-02-02T15:55:35;94679.50;;;2.94;84.46
62978;BME280;49073;42.352;23.808;2023-02-02T15:58:37;94693.34;;;2.68;87.97
62978;BME280;49073;42.352;23.808;2023-02-02T16:01:47;94687.06;;;2.55;89.44
62978;BME280;49073;42.352;23.808;2023-02-02T16:04:49;94716.28;;;2.53;89.94
62978;BME280;49073;42.352;23.808;2023-02-02T16:07:50;94735.50;;;2.54;89.91
62978;BME280;49073;42.352;23.808;2023-02-02T16:11:10;94736.31;;;2.17;90.15
62978;BME280;49073;42.352;23.808;2023-02-02T16:14:13;94737.03;;;2.09;91.23
62978;BME280;49073;42.352;23.808;2023-02-02T16:17:26;94740.22;;;1.83;92.00
62978;BME280;49073;42.352;23.808;2023-02-02T16:20:32;94742.69;;;2.02;92.88
62978;BME280;49073;42.352;23.808;2023-02-02T16:23:34;94731.16;;;2.12;90.83
62978;BME280;49073;42.352;23.808;2023-02-02T16:26:36;94718.69;;;2.18;89.65
62978;BME280;49073;42.352;23.808;2023-02-02T16:29:39;94739.63;;;2.23;87.97
62978;BME280;49073;42.352;23.808;2023-02-02T16:32:40;94747.06;;;2.30;86.22
62978;BME280;49073;42.352;23.808;2023-02-02T16:35:43;94742.75;;;2.34;84.49
62978;BME280;49073;42.352;23.808;2023-02-02T16:38:43;94748.88;;;2.43;84.51
62978;BME280;49073;42.352;23.808;2023-02-02T16:41:44;94743.16;;;2.41;84.29
62978;BME280;49073;42.352;23.808;2023-02-02T16:44:48;94742.56;;;2.44;83.98
62978;BME280;49073;42.352;23.808;2023-02-02T16:47:50;94758.84;;;2.32;82.95
62978;BME280;49073;42.352;23.808;2023-02-02T16:54:18;94753.28;;;2.34;82.11
62978;BME280;49073;42.352;23.808;2023-02-02T16:57:30;94762.47;;;2.23;81.75
62978;BME280;49073;42.352;23.808;2023-02-02T17:00:32;94756.16;;;2.24;80.77
62978;BME280;49073;42.352;23.808;2023-02-02T17:03:35;94769.88;;;2.21;81.89
62978;BME280;49073;42.352;23.808;2023-02-02T17:06:36;94778.56;;;2.21;81.50
62978;BME280;49073;42.352;23.808;2023-02-02T17:09:39;94766.50;;;2.20;81.37
62978;BME280;49073;42.352;23.808;2023-02-02T17:12:40;94769.88;;;2.21;81.36
62978;BME280;49073;42.352;23.808;2023-02-02T17:15:41;94776.81;;;2.16;82.30
62978;BME280;49073;42.352;23.808;2023-02-02T17:18:43;94777.41;;;2.13;81.94
62978;BME280;49073;42.352;23.808;2023-02-02T17:21:43;94792.59;;;2.16;81.97
62978;BME280;49073;42.352;23.808;2023-02-02T17:24:46;94791.13;;;2.24;82.72
62978;BME280;49073;42.352;23.808;2023-02-02T17:27:48;94800.72;;;2.29;82.25
62978;BME280;49073;42.352;23.808;2023-02-02T17:30:59;94800.63;;;2.34;82.78
62978;BME280;49073;42.352;23.808;2023-02-02T17:34:00;94814.94;;;2.28;82.54
62978;BME280;49073;42.352;23.808;2023-02-02T17:37:01;94817.19;;;2.35;82.36
62978;BME280;49073;42.352;23.808;2023-02-02T17:40:02;94808.22;;;2.36;82.39
62978;BME280;49073;42.352;23.808;2023-02-02T17:43:02;94821.28;;;2.27;83.79
62978;BME280;49073;42.352;23.808;2023-02-02T17:46:04;94830.84;;;2.23;84.08
62978;BME280;49073;42.352;23.808;2023-02-02T17:49:05;94818.84;;;2.30;84.29
62978;BME280;49073;42.352;23.808;2023-02-02T17:52:05;94814.69;;;2.15;84.58
62978;BME280;49073;42.352;23.808;2023-02-02T17:55:12;94816.13;;;2.22;84.69
62978;BME280;49073;42.352;23.808;2023-02-02T17:58:13;94792.78;;;2.20;85.26
62978;BME280;49073;42.352;23.808;2023-02-02T18:01:16;94795.69;;;2.18;85.30
62978;BME280;49073;42.352;23.808;2023-02-02T18:04:17;94802.72;;;2.23;85.28
62978;BME280;49073;42.352;23.808;2023-02-02T18:07:17;94821.34;;;2.13;85.19